createdAt,value
2022-09-12T00:01:24.214Z,81.29
2022-09-12T00:03:54.575Z,81.37
2022-09-12T00:06:26.639Z,80.96
2022-09-12T00:08:59.068Z,81.99
2022-09-12T00:11:28.208Z,81.83
2022-09-12T00:14:00.477Z,82.56
2022-09-12T00:16:33.328Z,81.73
2022-09-12T00:19:02.040Z,80.87
2022-09-12T00:21:30.528Z,80.55
2022-09-12T00:23:58.401Z,82.16
2022-09-12T00:26:26.272Z,82.68
2022-09-12T00:28:54.871Z,83.81
2022-09-12T00:31:27.327Z,82.63
2022-09-12T00:33:58.560Z,81.99
2022-09-12T00:36:28.988Z,82.81
2022-09-12T00:38:57.002Z,83.03
2022-09-12T00:41:28.952Z,81.68
2022-09-12T00:43:59.672Z,83.01
2022-09-12T00:46:37.297Z,82.30
2022-09-12T00:49:12.568Z,82.40
2022-09-12T00:51:43.991Z,82.99
2022-09-12T00:54:19.983Z,82.70
2022-09-12T00:56:51.304Z,82.66
2022-09-12T00:59:25.683Z,82.37
2022-09-12T01:01:56.717Z,82.21
2022-09-12T01:04:29.285Z,82.10
2022-09-12T01:06:59.719Z,82.69
2022-09-12T01:09:27.676Z,81.61
2022-09-12T01:11:56.763Z,82.64
2022-09-12T01:14:25.430Z,83.01
2022-09-12T01:16:54.673Z,82.43
2022-09-12T01:20:01.143Z,82.20
2022-09-12T01:23:11.037Z,81.67
2022-09-12T01:26:01.308Z,82.78
2022-09-12T01:28:54.355Z,82.49
2022-09-12T01:31:34.749Z,82.12
2022-09-12T01:34:20.936Z,83.06
2022-09-12T01:37:01.307Z,83.04
2022-09-12T01:39:42.155Z,83.85
2022-09-12T01:42:23.366Z,83.26
2022-09-12T01:45:02.978Z,84.01
2022-09-12T01:47:40.921Z,84.70
2022-09-12T01:50:18.708Z,84.75
2022-09-12T01:52:54.871Z,83.98
2022-09-12T01:55:29.319Z,84.09
2022-09-12T01:58:05.816Z,83.84
2022-09-12T02:00:36.448Z,84.31
2022-09-12T02:03:13.596Z,83.97
2022-09-12T02:05:49.892Z,84.14
2022-09-12T02:08:26.690Z,83.22
2022-09-12T02:10:59.891Z,84.17
2022-09-12T02:13:36.590Z,84.26
2022-09-12T02:16:10.965Z,84.83
2022-09-12T02:18:45.790Z,84.13
2022-09-12T02:21:14.398Z,83.92
2022-09-12T02:23:52.021Z,83.96
2022-09-12T02:26:25.574Z,84.38
2022-09-12T02:28:53.379Z,84.35
2022-09-12T02:31:30.020Z,84.66
2022-09-12T02:34:14.365Z,85.52
2022-09-12T02:36:53.055Z,84.40
2022-09-12T02:39:21.325Z,84.27
2022-09-12T02:41:52.562Z,84.35
2022-09-12T02:44:21.625Z,84.01
2022-09-12T02:46:55.208Z,87.09
2022-09-12T02:49:24.851Z,85.68
2022-09-12T02:51:53.024Z,84.94
2022-09-12T02:54:22.309Z,84.73
2022-09-12T02:56:50.103Z,84.32
2022-09-12T02:59:21.688Z,85.51
2022-09-12T03:02:25.460Z,85.51
2022-09-12T03:05:20.079Z,84.17
2022-09-12T03:08:16.872Z,84.66
2022-09-12T03:11:10.445Z,83.66
2022-09-12T03:13:54.339Z,84.44
2022-09-12T03:16:35.750Z,84.42
2022-09-12T03:19:13.711Z,84.42
2022-09-12T03:21:59.513Z,83.42
2022-09-12T03:24:35.131Z,84.22
2022-09-12T03:27:12.410Z,83.99
2022-09-12T03:29:42.399Z,84.83
2022-09-12T03:32:10.164Z,84.05
2022-09-12T03:34:37.912Z,84.41
2022-09-12T03:37:07.483Z,83.69
2022-09-12T03:39:35.295Z,84.67
2022-09-12T03:42:03.104Z,84.39
2022-09-12T03:44:30.884Z,84.67
2022-09-12T03:46:58.667Z,85.76
2022-09-12T03:49:26.428Z,85.50
2022-09-12T03:51:54.183Z,83.83
2022-09-12T03:54:23.452Z,85.28
2022-09-12T03:56:51.377Z,84.43
2022-09-12T03:59:19.170Z,84.38
2022-09-12T04:01:46.967Z,83.63
2022-09-12T04:04:14.768Z,85.06
2022-09-12T04:06:43.034Z,85.31
2022-09-12T04:09:11.139Z,86.01
2022-09-12T04:11:40.231Z,85.21
2022-09-12T04:14:07.990Z,85.39
2022-09-12T04:16:35.881Z,85.23
2022-09-12T04:19:03.706Z,85.36
2022-09-12T04:21:32.031Z,85.53
2022-09-12T04:23:59.861Z,86.29
2022-09-12T04:26:29.739Z,85.24
2022-09-12T04:28:59.401Z,84.41
2022-09-12T04:31:28.018Z,84.57
2022-09-12T04:33:57.700Z,84.70
2022-09-12T04:36:29.061Z,83.97
2022-09-12T04:38:57.372Z,84.35
2022-09-12T04:41:28.409Z,83.45
2022-09-12T04:44:01.622Z,84.38
2022-09-12T04:46:31.765Z,83.80
2022-09-12T04:48:59.676Z,83.89
2022-09-12T04:51:30.965Z,84.20
2022-09-12T04:54:02.483Z,84.65
2022-09-12T04:56:31.634Z,84.57
2022-09-12T04:59:02.358Z,84.07
2022-09-12T05:01:30.967Z,84.52
2022-09-12T05:04:00.766Z,83.29
2022-09-12T05:06:31.739Z,83.33
2022-09-12T05:09:01.836Z,84.56
2022-09-12T05:12:02.029Z,84.04
2022-09-12T05:14:22.098Z,83.41
2022-09-12T05:16:50.041Z,83.81
2022-09-12T05:19:18.478Z,82.39
2022-09-12T05:21:46.250Z,83.35
2022-09-12T05:24:14.075Z,84.00
2022-09-12T05:26:41.833Z,85.23
2022-09-12T05:29:09.635Z,83.70
2022-09-12T05:31:39.134Z,84.29
2022-09-12T05:34:07.013Z,87.05
2022-09-12T05:36:35.021Z,84.62
2022-09-12T05:39:03.760Z,85.83
2022-09-12T05:41:33.882Z,86.22
2022-09-12T05:44:05.325Z,83.92
2022-09-12T05:46:40.369Z,84.33
2022-09-12T05:49:11.575Z,83.19
2022-09-12T05:51:42.889Z,81.93
2022-09-12T05:54:14.973Z,82.85
2022-09-12T05:56:45.014Z,82.60
2022-09-12T05:59:15.451Z,82.82
2022-09-12T06:01:45.609Z,84.70
2022-09-12T06:04:14.118Z,83.84
2022-09-12T06:06:44.981Z,84.16
2022-09-12T06:09:15.593Z,83.14
2022-09-12T06:11:43.874Z,83.08
2022-09-12T06:14:14.253Z,84.42
2022-09-12T06:16:42.213Z,84.55
2022-09-12T06:19:20.014Z,84.21
2022-09-12T06:21:49.423Z,84.37
2022-09-12T06:24:17.956Z,83.76
2022-09-12T06:26:47.371Z,84.45
2022-09-12T06:29:15.930Z,83.86
2022-09-12T06:31:45.256Z,83.96
2022-09-12T06:34:16.504Z,82.70
2022-09-12T06:36:49.036Z,84.80
2022-09-12T06:39:19.941Z,84.16
2022-09-12T06:41:48.435Z,83.33
2022-09-12T06:44:19.522Z,83.12
2022-09-12T06:46:47.762Z,82.25
2022-09-12T06:49:17.558Z,82.75
2022-09-12T06:51:45.341Z,81.87
2022-09-12T06:54:15.398Z,82.34
2022-09-12T06:56:43.678Z,81.80
2022-09-12T06:59:11.809Z,81.84
2022-09-12T07:01:41.103Z,81.83
2022-09-12T07:04:08.963Z,82.71
2022-09-12T07:06:41.491Z,81.55
2022-09-12T07:09:13.203Z,82.25
2022-09-12T07:11:43.304Z,87.59
2022-09-12T07:14:14.876Z,88.09
2022-09-12T07:16:43.128Z,85.49
2022-09-12T07:19:12.126Z,82.83
2022-09-12T07:21:42.467Z,83.09
2022-09-12T07:24:11.457Z,82.67
2022-09-12T07:26:41.988Z,81.91
2022-09-12T07:32:05.975Z,81.85
2022-09-12T07:34:34.866Z,84.56
2022-09-12T07:37:04.561Z,83.74
2022-09-12T07:39:32.386Z,83.01
2022-09-12T07:42:00.419Z,85.48
2022-09-12T07:44:29.392Z,84.50
2022-09-12T07:46:57.193Z,85.39
2022-09-12T07:49:25.139Z,85.72
2022-09-12T07:51:53.166Z,85.43
2022-09-12T07:54:22.432Z,85.33
2022-09-12T07:56:50.280Z,83.25
2022-09-12T07:59:35.333Z,81.98
2022-09-12T08:02:06.340Z,81.22
2022-09-12T08:04:36.386Z,81.16
2022-09-12T08:07:04.464Z,82.11
2022-09-12T08:09:33.593Z,81.22
2022-09-12T08:12:01.497Z,78.53
2022-09-12T08:14:29.657Z,80.16
2022-09-12T08:16:57.450Z,79.56
2022-09-12T08:19:25.302Z,77.26
2022-09-12T08:21:53.071Z,80.86
2022-09-12T08:24:20.836Z,78.73
2022-09-12T08:26:49.958Z,79.32
2022-09-12T08:29:18.018Z,77.42
2022-09-12T08:31:46.793Z,75.98
2022-09-12T08:34:17.022Z,76.42
2022-09-12T08:36:44.796Z,72.87
2022-09-12T08:39:14.561Z,75.77
2022-09-12T08:41:45.716Z,76.16
2022-09-12T08:44:35.129Z,72.61
2022-09-12T08:47:23.783Z,73.07
2022-09-12T08:50:11.660Z,74.05
2022-09-12T08:52:51.884Z,73.29
2022-09-12T08:55:34.350Z,69.79
2022-09-12T08:58:10.842Z,71.61
2022-09-12T09:00:53.996Z,71.09
2022-09-12T09:03:56.537Z,72.22
2022-09-12T09:06:49.568Z,70.19
2022-09-12T09:09:34.757Z,69.35
2022-09-12T09:12:16.542Z,68.98
2022-09-12T09:15:03.180Z,70.54
2022-09-12T09:17:39.940Z,68.26
2022-09-12T09:20:24.829Z,69.91
2022-09-12T09:22:58.089Z,69.83
2022-09-12T09:25:41.569Z,67.80
2022-09-12T09:28:17.615Z,69.57
2022-09-12T09:30:45.968Z,70.90
2022-09-12T09:33:24.204Z,69.58
2022-09-12T09:36:05.420Z,68.00
2022-09-12T09:38:49.529Z,66.78
2022-09-12T09:41:46.238Z,67.91
2022-09-12T09:44:14.545Z,67.74
2022-09-12T09:46:42.626Z,66.96
2022-09-12T09:49:16.484Z,67.07
2022-09-12T09:51:44.776Z,65.46
2022-09-12T09:54:22.422Z,64.43
2022-09-12T09:56:50.910Z,66.29
2022-09-12T09:59:27.594Z,65.06
2022-09-12T10:02:02.052Z,65.79
2022-09-12T10:04:40.575Z,64.07
2022-09-12T10:07:21.819Z,62.87
2022-09-12T10:10:07.849Z,63.10
2022-09-12T10:12:35.688Z,61.35
2022-09-12T10:15:19.044Z,61.40
2022-09-12T10:17:49.440Z,62.99
2022-09-12T10:20:39.757Z,62.34
2022-09-12T10:23:30.366Z,62.34
2022-09-12T10:26:04.214Z,61.77
2022-09-12T10:28:39.373Z,61.08
2022-09-12T10:31:11.328Z,61.50
2022-09-12T10:33:47.355Z,60.70
2022-09-12T10:36:17.778Z,59.85
2022-09-12T10:38:52.090Z,60.20
2022-09-12T10:41:21.807Z,62.12
2022-09-12T10:43:50.353Z,62.17
2022-09-12T10:46:30.408Z,62.77
2022-09-12T10:49:18.955Z,60.46
2022-09-12T10:51:48.546Z,60.98
2022-09-12T10:54:19.810Z,60.51
2022-09-12T10:57:25.649Z,59.59
2022-09-12T11:00:12.281Z,57.71
2022-09-12T11:03:06.384Z,57.27
2022-09-12T11:05:56.238Z,56.87
2022-09-12T11:08:57.209Z,57.13
2022-09-12T11:11:51.223Z,57.93
2022-09-12T11:14:38.210Z,59.16
2022-09-12T11:17:25.116Z,60.75
2022-09-12T11:20:27.172Z,59.90
2022-09-12T11:23:31.453Z,59.61
2022-09-12T11:26:12.966Z,58.71
2022-09-12T11:28:56.692Z,58.79
2022-09-12T11:31:55.653Z,58.13
2022-09-12T11:34:39.318Z,58.60
2022-09-12T11:37:39.994Z,58.71
2022-09-12T11:40:28.904Z,58.53
2022-09-12T11:43:06.395Z,58.64
2022-09-12T11:45:42.072Z,58.37
2022-09-12T11:48:24.493Z,59.63
2022-09-12T11:50:53.215Z,60.65
2022-09-12T11:53:26.916Z,58.95
2022-09-12T11:56:00.807Z,60.12
2022-09-12T11:58:30.421Z,60.31
2022-09-12T12:01:11.907Z,61.41
2022-09-12T12:03:44.473Z,60.67
2022-09-12T12:06:19.349Z,59.97
2022-09-12T12:08:50.463Z,58.83
2022-09-12T12:11:31.729Z,59.15
2022-09-12T12:14:07.338Z,59.91
2022-09-12T12:16:39.275Z,59.32
2022-09-12T12:19:25.109Z,58.52
2022-09-12T12:21:53.582Z,57.45
2022-09-12T12:24:24.497Z,56.69
2022-09-12T12:27:02.305Z,56.68
2022-09-12T12:29:44.110Z,55.89
2022-09-12T12:32:26.510Z,55.88
2022-09-12T12:35:39.934Z,57.08
2022-09-12T12:38:30.581Z,56.63
2022-09-12T12:41:46.344Z,58.00
2022-09-12T12:44:52.397Z,58.78
2022-09-12T12:47:24.127Z,57.23
2022-09-12T12:49:57.053Z,57.59
2022-09-12T12:52:29.889Z,58.03
2022-09-12T12:55:02.398Z,56.61
2022-09-12T12:57:48.327Z,57.47
2022-09-12T13:00:34.604Z,56.04
2022-09-12T13:03:18.909Z,55.72
2022-09-12T13:05:50.842Z,56.31
2022-09-12T13:08:32.654Z,55.90
2022-09-12T13:11:10.179Z,56.31
2022-09-12T13:13:45.466Z,56.74
2022-09-12T13:16:30.873Z,56.12
2022-09-12T13:19:06.047Z,55.94
2022-09-12T13:21:33.879Z,56.15
2022-09-12T13:24:04.413Z,55.39
2022-09-12T13:26:42.745Z,55.17
2022-09-12T13:29:12.988Z,57.41
2022-09-12T13:31:47.212Z,56.75
2022-09-12T13:34:21.893Z,57.46
2022-09-12T13:37:34.043Z,56.68
2022-09-12T13:40:19.186Z,55.53
2022-09-12T13:42:49.490Z,57.19
2022-09-12T13:45:23.117Z,57.01
2022-09-12T13:47:58.550Z,55.93
2022-09-12T13:50:32.023Z,56.61
2022-09-12T13:53:05.370Z,56.32
2022-09-12T13:55:36.006Z,57.00
2022-09-12T13:58:07.572Z,56.94
2022-09-12T14:00:37.217Z,56.61
2022-09-12T14:03:45.089Z,56.40
2022-09-12T14:06:14.437Z,55.44
2022-09-12T14:08:43.011Z,55.58
2022-09-12T14:11:13.130Z,55.10
2022-09-12T14:13:42.288Z,55.39
2022-09-12T14:16:12.388Z,54.72
2022-09-12T14:18:45.481Z,56.05
2022-09-12T14:21:35.360Z,54.95
2022-09-12T14:24:08.427Z,55.42
2022-09-12T14:26:40.537Z,55.06
2022-09-12T14:29:12.692Z,55.76
2022-09-12T14:31:41.298Z,55.49
2022-09-12T14:34:15.687Z,55.20
2022-09-12T14:36:47.568Z,55.29
2022-09-12T14:39:30.466Z,54.32
2022-09-12T14:42:12.817Z,54.08
2022-09-12T14:44:52.509Z,53.79
2022-09-12T14:47:25.205Z,54.49
2022-09-12T14:49:53.373Z,54.38
2022-09-12T14:52:30.769Z,54.90
2022-09-12T14:55:01.804Z,54.08
2022-09-12T14:57:40.633Z,54.57
2022-09-12T15:00:24.212Z,54.24
2022-09-12T15:02:54.086Z,54.83
2022-09-12T15:05:28.549Z,55.49
2022-09-12T15:08:02.025Z,55.26
2022-09-12T15:10:35.397Z,55.27
2022-09-12T15:13:19.532Z,54.76
2022-09-12T15:15:52.315Z,55.16
2022-09-12T15:18:21.638Z,55.72
2022-09-12T15:20:52.816Z,55.03
2022-09-12T15:23:31.002Z,55.03
2022-09-12T15:25:58.793Z,55.12
2022-09-12T15:28:27.685Z,55.11
2022-09-12T15:31:00.766Z,58.04
2022-09-12T15:33:28.551Z,59.60
2022-09-12T15:35:56.430Z,56.55
2022-09-12T15:38:26.486Z,56.45
2022-09-12T15:40:55.782Z,56.08
2022-09-12T15:43:26.150Z,56.63
2022-09-12T15:45:54.117Z,56.83
2022-09-12T15:48:23.231Z,56.82
2022-09-12T15:50:51.034Z,57.26
2022-09-12T15:53:19.007Z,56.87
2022-09-12T15:55:46.847Z,56.90
2022-09-12T15:58:14.641Z,57.04
2022-09-12T16:00:42.389Z,56.72
2022-09-12T16:03:24.393Z,56.68
2022-09-12T16:05:58.137Z,57.66
2022-09-12T16:08:26.684Z,57.61
2022-09-12T16:10:57.927Z,58.13
2022-09-12T16:13:26.743Z,57.30
2022-09-12T16:15:58.658Z,57.99
2022-09-12T16:18:30.693Z,57.41
2022-09-12T16:20:59.075Z,57.14
2022-09-12T16:23:26.940Z,57.49
2022-09-12T16:25:59.261Z,57.55
2022-09-12T16:28:27.701Z,57.42
2022-09-12T16:31:00.609Z,57.39
2022-09-12T16:33:31.364Z,57.46
2022-09-12T16:36:03.997Z,57.91
2022-09-12T16:38:32.616Z,57.84
2022-09-12T16:41:08.175Z,58.22
2022-09-12T16:43:38.103Z,58.37
2022-09-12T16:46:10.260Z,58.45
2022-09-12T16:48:51.550Z,58.58
2022-09-12T16:51:23.576Z,58.96
2022-09-12T16:53:52.321Z,58.88
2022-09-12T16:56:20.492Z,58.33
2022-09-12T16:58:49.466Z,58.51
2022-09-12T17:01:20.472Z,58.47
2022-09-12T17:03:54.093Z,58.88
2022-09-12T17:06:22.214Z,58.74
2022-09-12T17:08:53.125Z,58.56
2022-09-12T17:11:24.140Z,58.99
2022-09-12T17:14:09.731Z,59.49
2022-09-12T17:16:40.961Z,59.50
2022-09-12T17:19:15.373Z,59.45
2022-09-12T17:21:43.319Z,60.20
2022-09-12T17:24:11.203Z,60.55
2022-09-12T17:26:39.130Z,60.50
2022-09-12T17:29:07.370Z,61.23
2022-09-12T17:31:35.784Z,61.06
2022-09-12T17:34:04.053Z,61.77
2022-09-12T17:36:33.998Z,62.09
2022-09-12T17:39:04.708Z,62.64
2022-09-12T17:41:33.271Z,62.36
2022-09-12T17:44:03.567Z,62.69
2022-09-12T17:46:35.069Z,62.85
2022-09-12T17:49:05.261Z,63.30
2022-09-12T17:51:34.443Z,63.66
2022-09-12T17:54:06.175Z,63.93
2022-09-12T17:56:36.903Z,63.67
2022-09-12T17:59:07.517Z,64.11
2022-09-12T18:01:53.602Z,63.85
2022-09-12T18:04:21.607Z,64.14
2022-09-12T18:06:50.873Z,64.33
2022-09-12T18:09:22.239Z,64.65
2022-09-12T18:11:50.581Z,65.15
2022-09-12T18:14:19.286Z,65.27
2022-09-12T18:16:48.568Z,65.43
2022-09-12T18:19:17.455Z,65.75
2022-09-12T18:21:45.776Z,65.62
2022-09-12T18:24:15.206Z,65.60
2022-09-12T18:26:43.988Z,65.83
2022-09-12T18:29:12.406Z,65.76
2022-09-12T18:31:40.492Z,65.86
2022-09-12T18:34:12.637Z,65.78
2022-09-12T18:36:41.155Z,66.36
2022-09-12T18:39:09.342Z,66.60
2022-09-12T18:41:39.950Z,67.04
2022-09-12T18:44:11.454Z,66.76
2022-09-12T18:46:39.942Z,66.38
2022-09-12T18:49:09.478Z,66.99
2022-09-12T18:51:40.218Z,66.70
2022-09-12T18:54:13.590Z,66.92
2022-09-12T18:56:45.563Z,67.58
2022-09-12T18:59:14.819Z,67.24
2022-09-12T19:01:43.745Z,67.20
2022-09-12T19:04:14.096Z,67.35
2022-09-12T19:06:44.753Z,67.66
2022-09-12T19:09:16.729Z,67.97
2022-09-12T19:11:49.974Z,67.92
2022-09-12T19:14:23.018Z,68.33
2022-09-12T19:16:53.205Z,68.93
2022-09-12T19:19:23.444Z,68.92
2022-09-12T19:21:51.260Z,69.13
2022-09-12T19:24:21.657Z,69.17
2022-09-12T19:26:51.533Z,68.72
2022-09-12T19:29:20.035Z,68.76
2022-09-12T19:31:47.922Z,68.04
2022-09-12T19:34:16.381Z,69.08
2022-09-12T19:36:45.825Z,69.67
2022-09-12T19:39:15.232Z,69.71
2022-09-12T19:41:43.692Z,70.45
2022-09-12T19:44:13.303Z,70.58
2022-09-12T19:46:41.809Z,70.75
2022-09-12T19:49:12.394Z,71.16
2022-09-12T19:51:40.789Z,70.92
2022-09-12T19:54:09.099Z,71.41
2022-09-12T19:56:36.866Z,71.54
2022-09-12T19:59:07.118Z,71.68
2022-09-12T20:01:37.499Z,71.79
2022-09-12T20:04:06.766Z,71.59
2022-09-12T20:06:34.791Z,71.71
2022-09-12T20:09:02.900Z,71.78
2022-09-12T20:11:31.354Z,71.77
2022-09-12T20:13:59.202Z,71.95
2022-09-12T20:16:29.461Z,72.08
2022-09-12T20:19:02.471Z,72.83
2022-09-12T20:21:36.443Z,72.27
2022-09-12T20:24:07.369Z,72.41
2022-09-12T20:26:37.510Z,73.00
2022-09-12T20:29:06.536Z,72.85
2022-09-12T20:31:35.626Z,72.55
2022-09-12T20:34:05.897Z,72.85
2022-09-12T20:36:34.513Z,72.52
2022-09-12T20:39:03.224Z,72.71
2022-09-12T20:41:34.461Z,72.95
2022-09-12T20:44:06.723Z,73.05
2022-09-12T20:46:35.031Z,73.36
2022-09-12T20:49:05.547Z,72.81
2022-09-12T20:51:33.500Z,73.10
2022-09-12T20:54:04.579Z,72.87
2022-09-12T20:56:35.704Z,73.19
2022-09-12T20:59:04.458Z,73.25
2022-09-12T21:01:33.672Z,73.44
2022-09-12T21:04:02.078Z,72.99
2022-09-12T21:06:32.277Z,73.26
2022-09-12T21:09:00.397Z,73.52
2022-09-12T21:11:28.707Z,73.35
2022-09-12T21:13:59.338Z,74.01
2022-09-12T21:16:29.438Z,73.33
2022-09-12T21:19:00.127Z,73.44
2022-09-12T21:21:28.398Z,74.17
2022-09-12T21:24:02.681Z,73.99
2022-09-12T21:26:30.929Z,73.98
2022-09-12T21:28:59.430Z,74.19
2022-09-12T21:31:27.723Z,74.65
2022-09-12T21:33:55.654Z,74.56
2022-09-12T21:36:26.657Z,74.61
2022-09-12T21:38:54.470Z,74.39
2022-09-12T21:41:23.521Z,74.33
2022-09-12T21:43:51.483Z,75.18
2022-09-12T21:46:22.118Z,74.83
2022-09-12T21:48:49.913Z,74.78
2022-09-12T21:51:18.124Z,74.85
2022-09-12T21:53:46.457Z,74.49
2022-09-12T21:56:14.231Z,74.55
2022-09-12T21:58:43.320Z,74.52
2022-09-12T22:01:13.161Z,74.74
2022-09-12T22:03:42.522Z,73.91
2022-09-12T22:06:12.633Z,74.13
2022-09-12T22:08:40.512Z,75.04
2022-09-12T22:11:10.886Z,75.45
2022-09-12T22:13:43.758Z,75.63
2022-09-12T22:16:13.328Z,74.86
2022-09-12T22:18:41.332Z,74.83
2022-09-12T22:21:13.706Z,74.67
2022-09-12T22:23:59.465Z,75.30
2022-09-12T22:26:28.936Z,75.42
2022-09-12T22:28:57.125Z,75.35
2022-09-12T22:31:26.938Z,75.38
2022-09-12T22:33:57.038Z,74.59
2022-09-12T22:36:28.096Z,75.36
2022-09-12T22:38:58.789Z,75.87
2022-09-12T22:41:26.938Z,75.22
2022-09-12T22:43:54.750Z,75.66
2022-09-12T22:46:22.640Z,75.92
2022-09-12T22:48:52.203Z,76.18
2022-09-12T22:51:20.042Z,75.37
2022-09-12T22:53:47.957Z,75.20
2022-09-12T22:56:15.792Z,75.69
2022-09-12T22:58:43.796Z,75.09
2022-09-12T23:01:12.008Z,75.43
2022-09-12T23:03:40.074Z,75.19
2022-09-12T23:06:10.580Z,75.96
2022-09-12T23:08:40.678Z,75.28
2022-09-12T23:11:12.833Z,76.04
2022-09-12T23:13:43.794Z,75.33
2022-09-12T23:16:17.359Z,74.99
2022-09-12T23:18:45.313Z,75.10
2022-09-12T23:21:17.566Z,75.16
2022-09-12T23:23:45.808Z,75.32
2022-09-12T23:26:17.195Z,75.26
2022-09-12T23:28:52.767Z,75.75
2022-09-12T23:31:21.256Z,74.78
2022-09-12T23:33:49.482Z,74.75
2022-09-12T23:36:18.592Z,74.46
2022-09-12T23:38:47.842Z,75.14
2022-09-12T23:41:17.491Z,76.13
2022-09-12T23:43:45.994Z,75.48
2022-09-12T23:46:15.822Z,75.98
2022-09-12T23:48:44.236Z,76.97
2022-09-12T23:51:12.982Z,76.58
2022-09-12T23:53:42.656Z,76.19
2022-09-12T23:56:10.924Z,74.69
2022-09-12T23:58:38.797Z,75.18
